createdAt,value
2022-09-13T00:00:22.021Z,8.93
2022-09-13T00:10:27.200Z,8.80
2022-09-13T00:20:30.183Z,9.63
2022-09-13T00:30:34.745Z,9.75
2022-09-13T00:40:38.984Z,10.35
2022-09-13T00:50:46.899Z,10.32
2022-09-13T01:00:50.634Z,10.13
2022-09-13T01:10:58.194Z,9.60
2022-09-13T01:21:37.318Z,9.32
2022-09-13T01:31:47.967Z,8.17
2022-09-13T01:42:05.222Z,8.18
2022-09-13T01:52:17.469Z,7.65
2022-09-13T02:02:25.222Z,7.47
2022-09-13T02:12:32.875Z,7.20
2022-09-13T02:22:41.983Z,7.07
2022-09-13T02:32:51.188Z,6.70
2022-09-13T02:42:59.901Z,6.03
2022-09-13T02:53:12.928Z,5.10
2022-09-13T03:03:17.435Z,5.65
2022-09-13T03:13:46.675Z,5.50
2022-09-13T03:24:01.727Z,5.87
2022-09-13T03:34:11.832Z,6.00
2022-09-13T03:44:17.103Z,6.00
2022-09-13T03:54:23.642Z,6.07
2022-09-13T04:04:26.615Z,6.10
2022-09-13T04:14:30.923Z,6.32
2022-09-13T04:24:33.630Z,6.90
2022-09-13T04:34:38.141Z,7.28
2022-09-13T04:44:40.812Z,7.50
2022-09-13T04:54:45.029Z,8.50
2022-09-13T05:04:47.680Z,9.25
2022-09-13T05:14:51.672Z,9.23
2022-09-13T05:24:54.448Z,8.93
2022-09-13T05:34:58.483Z,8.93
2022-09-13T05:45:01.402Z,9.38
2022-09-13T05:55:05.995Z,10.30
2022-09-13T06:05:10.599Z,9.70
2022-09-13T06:15:15.683Z,11.85
2022-09-13T06:25:18.397Z,12.05
2022-09-13T06:35:22.429Z,10.50
2022-09-13T06:45:25.101Z,7.40
2022-09-13T06:55:29.058Z,3.42
2022-09-13T07:05:31.862Z,2.05
2022-09-13T07:15:38.879Z,1.60
2022-09-13T07:25:41.596Z,1.40
2022-09-13T07:35:45.603Z,1.67
2022-09-13T07:45:48.278Z,1.77
2022-09-13T07:55:52.300Z,1.50
2022-09-13T08:05:54.951Z,1.30
2022-09-13T08:16:02.485Z,1.30
2022-09-13T08:26:06.386Z,0.80
2022-09-13T08:36:10.445Z,0.75
2022-09-13T08:46:22.267Z,0.80
2022-09-13T08:56:35.022Z,0.80
2022-09-13T09:06:37.979Z,1.08
2022-09-13T09:16:48.102Z,1.05
2022-09-13T09:26:51.109Z,0.70
2022-09-13T09:37:01.519Z,0.90
2022-09-13T09:47:08.475Z,0.90
2022-09-13T09:57:13.283Z,0.80
2022-09-13T10:07:27.663Z,0.82
2022-09-13T10:17:31.714Z,1.05
2022-09-13T10:27:38.841Z,0.80
2022-09-13T10:37:45.168Z,0.60
2022-09-13T10:47:51.353Z,1.05
2022-09-13T10:57:56.947Z,0.80
2022-09-13T11:08:26.472Z,1.17
2022-09-13T11:18:51.285Z,0.70
2022-09-13T11:29:06.584Z,0.88
2022-09-13T11:39:23.839Z,1.13
2022-09-13T11:49:46.714Z,0.80
2022-09-13T11:59:55.496Z,0.80
2022-09-13T12:10:03.993Z,0.93
2022-09-13T12:20:16.573Z,0.95
2022-09-13T12:30:21.245Z,0.80
2022-09-13T12:40:50.515Z,1.00
2022-09-13T12:51:07.018Z,0.68
2022-09-13T13:01:16.004Z,0.80
2022-09-13T13:11:23.838Z,0.80
2022-09-13T13:21:37.779Z,1.03
2022-09-13T13:31:46.798Z,1.00
2022-09-13T13:41:56.386Z,0.90
2022-09-13T13:52:32.366Z,1.27
2022-09-13T14:02:42.226Z,0.80
2022-09-13T14:12:57.537Z,1.23
2022-09-13T14:23:18.324Z,0.80
2022-09-13T14:33:30.824Z,1.08
2022-09-13T14:43:34.829Z,0.70
2022-09-13T14:53:37.904Z,0.98
2022-09-13T15:03:44.092Z,0.80
2022-09-13T15:13:46.846Z,1.30
2022-09-13T15:23:52.166Z,1.13
2022-09-13T15:34:13.746Z,0.93
2022-09-13T15:44:17.751Z,0.73
2022-09-13T15:54:22.730Z,0.80
2022-09-13T16:04:26.706Z,1.13
2022-09-13T16:14:29.453Z,0.93
2022-09-13T16:24:33.976Z,0.93
2022-09-13T16:34:36.872Z,1.00
2022-09-13T16:44:40.970Z,0.70
2022-09-13T16:54:46.337Z,0.90
2022-09-13T17:04:50.398Z,0.80
2022-09-13T17:14:54.957Z,0.70
2022-09-13T17:24:59.076Z,0.60
2022-09-13T17:35:01.782Z,0.57
2022-09-13T17:45:07.234Z,1.00
2022-09-13T17:55:10.458Z,0.88
2022-09-13T18:05:14.537Z,1.00
2022-09-13T18:15:17.297Z,1.20
2022-09-13T18:25:23.467Z,1.00
2022-09-13T18:35:26.471Z,1.13
2022-09-13T18:45:31.207Z,1.10
2022-09-13T18:55:39.787Z,1.38
2022-09-13T19:05:44.140Z,1.40
2022-09-13T19:15:47.260Z,1.58
2022-09-13T19:25:51.393Z,1.90
2022-09-13T19:35:54.126Z,0.93
2022-09-13T19:46:00.420Z,1.15
2022-09-13T19:56:04.856Z,1.00
2022-09-13T20:06:11.281Z,1.25
2022-09-13T20:16:18.339Z,1.42
2022-09-13T20:26:25.499Z,0.98
2022-09-13T20:36:30.493Z,1.23
2022-09-13T20:46:34.632Z,1.20
2022-09-13T20:56:37.442Z,1.60
2022-09-13T21:07:03.637Z,1.40
2022-09-13T21:17:07.826Z,1.27
2022-09-13T21:27:12.223Z,1.40
2022-09-13T21:37:15.658Z,1.58
2022-09-13T21:47:19.880Z,1.45
2022-09-13T21:57:22.905Z,1.95
2022-09-13T22:07:27.012Z,1.40
2022-09-13T22:17:29.926Z,1.77
2022-09-13T22:27:34.043Z,1.75
2022-09-13T22:37:36.755Z,1.20
2022-09-13T22:47:40.758Z,1.13
2022-09-13T22:57:43.438Z,1.20
2022-09-13T23:07:47.559Z,1.20
2022-09-13T23:17:50.215Z,1.35
2022-09-13T23:27:54.363Z,1.40
2022-09-13T23:37:57.082Z,1.15
2022-09-13T23:48:01.137Z,1.35
2022-09-13T23:58:03.990Z,1.55
